sensor_id;sensor_type;location;lat;lon;timestamp;P1;durP1;ratioP1;P2;durP2;ratioP2
36839;SDS011;24406;51.640;9.566;2022-09-25T00:03:31;13.85;;;12.35;;
36839;SDS011;24406;51.640;9.566;2022-09-25T00:08:32;14.00;;;12.15;;
36839;SDS011;24406;51.640;9.566;2022-09-25T00:13:35;13.13;;;11.93;;
36839;SDS011;24406;51.640;9.566;2022-09-25T00:18:38;13.20;;;11.80;;
36839;SDS011;24406;51.640;9.566;2022-09-25T00:23:57;13.88;;;12.40;;
36839;SDS011;24406;51.640;9.566;2022-09-25T00:29:00;17.67;;;13.30;;
36839;SDS011;24406;51.640;9.566;2022-09-25T00:34:04;18.52;;;13.30;;
36839;SDS011;24406;51.640;9.566;2022-09-25T00:39:05;15.32;;;12.73;;
36839;SDS011;24406;51.640;9.566;2022-09-25T00:49:42;14.63;;;12.77;;
36839;SDS011;24406;51.640;9.566;2022-09-25T00:54:45;14.98;;;13.27;;
36839;SDS011;24406;51.640;9.566;2022-09-25T00:59:48;13.57;;;12.10;;
36839;SDS011;24406;51.640;9.566;2022-09-25T01:04:52;15.63;;;12.82;;
36839;SDS011;24406;51.640;9.566;2022-09-25T01:09:55;15.02;;;13.18;;
36839;SDS011;24406;51.640;9.566;2022-09-25T01:14:58;14.88;;;12.75;;
36839;SDS011;24406;51.640;9.566;2022-09-25T01:20:02;16.55;;;14.85;;
36839;SDS011;24406;51.640;9.566;2022-09-25T01:25:10;17.27;;;15.40;;
36839;SDS011;24406;51.640;9.566;2022-09-25T01:30:17;20.48;;;17.00;;
36839;SDS011;24406;51.640;9.566;2022-09-25T01:35:21;23.67;;;18.05;;
36839;SDS011;24406;51.640;9.566;2022-09-25T01:40:28;22.25;;;18.15;;
36839;SDS011;24406;51.640;9.566;2022-09-25T01:45:35;24.77;;;18.27;;
36839;SDS011;24406;51.640;9.566;2022-09-25T01:50:41;20.27;;;17.35;;
36839;SDS011;24406;51.640;9.566;2022-09-25T01:55:45;20.02;;;17.63;;
36839;SDS011;24406;51.640;9.566;2022-09-25T02:00:50;21.15;;;16.02;;
36839;SDS011;24406;51.640;9.566;2022-09-25T02:05:56;21.55;;;16.88;;
36839;SDS011;24406;51.640;9.566;2022-09-25T02:10:59;19.73;;;16.58;;
36839;SDS011;24406;51.640;9.566;2022-09-25T02:16:04;21.80;;;17.58;;
36839;SDS011;24406;51.640;9.566;2022-09-25T02:21:11;19.33;;;16.90;;
36839;SDS011;24406;51.640;9.566;2022-09-25T02:26:15;19.20;;;16.90;;
36839;SDS011;24406;51.640;9.566;2022-09-25T02:31:24;20.80;;;15.70;;
36839;SDS011;24406;51.640;9.566;2022-09-25T02:36:28;26.67;;;17.10;;
36839;SDS011;24406;51.640;9.566;2022-09-25T02:41:35;17.17;;;15.30;;
36839;SDS011;24406;51.640;9.566;2022-09-25T02:46:44;19.80;;;17.08;;
36839;SDS011;24406;51.640;9.566;2022-09-25T02:51:55;18.42;;;16.08;;
36839;SDS011;24406;51.640;9.566;2022-09-25T02:57:01;23.15;;;19.42;;
36839;SDS011;24406;51.640;9.566;2022-09-25T03:02:06;26.77;;;20.20;;
36839;SDS011;24406;51.640;9.566;2022-09-25T03:07:08;22.15;;;19.05;;
36839;SDS011;24406;51.640;9.566;2022-09-25T03:12:10;29.20;;;23.60;;
36839;SDS011;24406;51.640;9.566;2022-09-25T03:17:12;28.52;;;22.75;;
36839;SDS011;24406;51.640;9.566;2022-09-25T03:22:15;31.13;;;23.70;;
36839;SDS011;24406;51.640;9.566;2022-09-25T03:27:17;30.55;;;24.77;;
36839;SDS011;24406;51.640;9.566;2022-09-25T03:32:21;35.03;;;24.55;;
36839;SDS011;24406;51.640;9.566;2022-09-25T03:37:22;29.95;;;23.40;;
36839;SDS011;24406;51.640;9.566;2022-09-25T03:42:24;31.52;;;24.48;;
36839;SDS011;24406;51.640;9.566;2022-09-25T03:47:28;29.83;;;24.60;;
36839;SDS011;24406;51.640;9.566;2022-09-25T03:52:30;30.10;;;24.85;;
36839;SDS011;24406;51.640;9.566;2022-09-25T03:57:31;30.55;;;24.33;;
36839;SDS011;24406;51.640;9.566;2022-09-25T04:02:34;27.92;;;22.67;;
36839;SDS011;24406;51.640;9.566;2022-09-25T04:07:35;24.42;;;21.00;;
36839;SDS011;24406;51.640;9.566;2022-09-25T04:12:37;24.77;;;20.27;;
36839;SDS011;24406;51.640;9.566;2022-09-25T04:17:40;21.15;;;18.75;;
36839;SDS011;24406;51.640;9.566;2022-09-25T04:22:41;23.58;;;19.85;;
36839;SDS011;24406;51.640;9.566;2022-09-25T04:27:42;28.08;;;21.92;;
36839;SDS011;24406;51.640;9.566;2022-09-25T04:32:46;28.88;;;21.58;;
36839;SDS011;24406;51.640;9.566;2022-09-25T04:38:05;29.95;;;23.80;;
36839;SDS011;24406;51.640;9.566;2022-09-25T04:43:08;28.58;;;21.85;;
36839;SDS011;24406;51.640;9.566;2022-09-25T04:48:11;28.02;;;23.42;;
36839;SDS011;24406;51.640;9.566;2022-09-25T04:53:12;28.75;;;22.80;;
36839;SDS011;24406;51.640;9.566;2022-09-25T04:58:14;34.22;;;22.85;;
36839;SDS011;24406;51.640;9.566;2022-09-25T05:03:16;27.63;;;22.33;;
36839;SDS011;24406;51.640;9.566;2022-09-25T05:08:18;28.08;;;23.40;;
36839;SDS011;24406;51.640;9.566;2022-09-25T05:13:19;27.75;;;22.55;;
36839;SDS011;24406;51.640;9.566;2022-09-25T05:18:22;28.65;;;22.52;;
36839;SDS011;24406;51.640;9.566;2022-09-25T05:23:24;27.73;;;22.70;;
36839;SDS011;24406;51.640;9.566;2022-09-25T05:28:25;28.17;;;22.45;;
36839;SDS011;24406;51.640;9.566;2022-09-25T05:33:28;29.70;;;24.08;;
36839;SDS011;24406;51.640;9.566;2022-09-25T05:38:30;26.45;;;22.80;;
36839;SDS011;24406;51.640;9.566;2022-09-25T05:43:33;31.13;;;23.77;;
36839;SDS011;24406;51.640;9.566;2022-09-25T05:48:39;23.92;;;20.90;;
36839;SDS011;24406;51.640;9.566;2022-09-25T05:53:41;26.33;;;23.35;;
36839;SDS011;24406;51.640;9.566;2022-09-25T05:58:42;25.75;;;21.15;;
36839;SDS011;24406;51.640;9.566;2022-09-25T06:03:45;24.27;;;19.35;;
36839;SDS011;24406;51.640;9.566;2022-09-25T06:08:46;23.67;;;19.05;;
36839;SDS011;24406;51.640;9.566;2022-09-25T06:13:48;20.80;;;17.70;;
36839;SDS011;24406;51.640;9.566;2022-09-25T06:18:51;23.90;;;19.88;;
36839;SDS011;24406;51.640;9.566;2022-09-25T06:23:53;25.92;;;22.83;;
36839;SDS011;24406;51.640;9.566;2022-09-25T06:28:54;29.35;;;21.40;;
36839;SDS011;24406;51.640;9.566;2022-09-25T06:34:00;27.80;;;23.20;;
36839;SDS011;24406;51.640;9.566;2022-09-25T06:39:02;26.73;;;21.73;;
36839;SDS011;24406;51.640;9.566;2022-09-25T06:44:03;26.38;;;20.48;;
36839;SDS011;24406;51.640;9.566;2022-09-25T06:49:07;22.83;;;18.38;;
36839;SDS011;24406;51.640;9.566;2022-09-25T06:54:08;26.77;;;22.30;;
36839;SDS011;24406;51.640;9.566;2022-09-25T06:59:10;25.58;;;17.92;;
36839;SDS011;24406;51.640;9.566;2022-09-25T07:04:12;21.08;;;15.18;;
36839;SDS011;24406;51.640;9.566;2022-09-25T07:09:14;26.70;;;19.10;;
36839;SDS011;24406;51.640;9.566;2022-09-25T07:14:15;25.25;;;18.40;;
36839;SDS011;24406;51.640;9.566;2022-09-25T07:19:18;18.50;;;15.38;;
36839;SDS011;24406;51.640;9.566;2022-09-25T07:24:19;22.15;;;15.13;;
36839;SDS011;24406;51.640;9.566;2022-09-25T07:29:21;15.85;;;11.52;;
36839;SDS011;24406;51.640;9.566;2022-09-25T07:34:24;16.48;;;11.45;;
36839;SDS011;24406;51.640;9.566;2022-09-25T07:39:25;16.35;;;10.57;;
36839;SDS011;24406;51.640;9.566;2022-09-25T07:44:27;14.32;;;8.90;;
36839;SDS011;24406;51.640;9.566;2022-09-25T07:49:29;16.48;;;9.52;;
36839;SDS011;24406;51.640;9.566;2022-09-25T07:54:31;16.67;;;10.30;;
36839;SDS011;24406;51.640;9.566;2022-09-25T07:59:33;15.93;;;9.23;;
36839;SDS011;24406;51.640;9.566;2022-09-25T08:04:36;15.30;;;9.27;;
36839;SDS011;24406;51.640;9.566;2022-09-25T08:09:37;13.70;;;9.15;;
36839;SDS011;24406;51.640;9.566;2022-09-25T08:14:39;17.13;;;9.57;;
36839;SDS011;24406;51.640;9.566;2022-09-25T08:19:43;10.35;;;8.57;;
36839;SDS011;24406;51.640;9.566;2022-09-25T08:24:44;13.05;;;7.60;;
36839;SDS011;24406;51.640;9.566;2022-09-25T08:29:45;15.00;;;7.50;;
36839;SDS011;24406;51.640;9.566;2022-09-25T08:34:48;14.25;;;7.65;;
36839;SDS011;24406;51.640;9.566;2022-09-25T08:39:49;12.30;;;7.20;;
36839;SDS011;24406;51.640;9.566;2022-09-25T08:44:51;9.38;;;6.18;;
36839;SDS011;24406;51.640;9.566;2022-09-25T08:50:17;12.77;;;6.82;;
36839;SDS011;24406;51.640;9.566;2022-09-25T08:55:21;13.70;;;6.38;;
36839;SDS011;24406;51.640;9.566;2022-09-25T09:00:44;8.07;;;5.43;;
36839;SDS011;24406;51.640;9.566;2022-09-25T09:05:47;9.20;;;4.70;;
36839;SDS011;24406;51.640;9.566;2022-09-25T09:10:52;6.38;;;4.78;;
36839;SDS011;24406;51.640;9.566;2022-09-25T09:15:58;11.98;;;5.90;;
36839;SDS011;24406;51.640;9.566;2022-09-25T09:21:05;9.85;;;5.20;;
36839;SDS011;24406;51.640;9.566;2022-09-25T09:26:11;10.82;;;4.25;;
36839;SDS011;24406;51.640;9.566;2022-09-25T09:31:17;11.32;;;4.90;;
36839;SDS011;24406;51.640;9.566;2022-09-25T09:36:25;12.48;;;5.25;;
36839;SDS011;24406;51.640;9.566;2022-09-25T09:41:32;6.95;;;4.53;;
36839;SDS011;24406;51.640;9.566;2022-09-25T09:46:43;5.35;;;3.72;;
36839;SDS011;24406;51.640;9.566;2022-09-25T09:51:50;13.18;;;4.28;;
36839;SDS011;24406;51.640;9.566;2022-09-25T09:56:54;12.25;;;4.65;;
36839;SDS011;24406;51.640;9.566;2022-09-25T10:01:58;13.30;;;4.82;;
36839;SDS011;24406;51.640;9.566;2022-09-25T10:07:04;9.35;;;3.35;;
36839;SDS011;24406;51.640;9.566;2022-09-25T10:12:11;8.82;;;3.72;;
36839;SDS011;24406;51.640;9.566;2022-09-25T10:17:14;6.03;;;3.80;;
36839;SDS011;24406;51.640;9.566;2022-09-25T10:22:18;6.90;;;4.40;;
36839;SDS011;24406;51.640;9.566;2022-09-25T10:27:25;7.38;;;3.40;;
36839;SDS011;24406;51.640;9.566;2022-09-25T10:32:28;7.47;;;3.53;;
36839;SDS011;24406;51.640;9.566;2022-09-25T10:37:31;9.10;;;3.33;;
36839;SDS011;24406;51.640;9.566;2022-09-25T10:42:36;5.07;;;2.90;;
36839;SDS011;24406;51.640;9.566;2022-09-25T10:47:40;5.47;;;3.10;;
36839;SDS011;24406;51.640;9.566;2022-09-25T10:53:02;8.43;;;3.47;;
36839;SDS011;24406;51.640;9.566;2022-09-25T10:58:06;6.85;;;2.55;;
36839;SDS011;24406;51.640;9.566;2022-09-25T11:03:14;4.27;;;2.10;;
36839;SDS011;24406;51.640;9.566;2022-09-25T11:08:21;4.95;;;2.33;;
36839;SDS011;24406;51.640;9.566;2022-09-25T11:13:25;5.35;;;2.17;;
36839;SDS011;24406;51.640;9.566;2022-09-25T11:18:35;4.05;;;2.38;;
36839;SDS011;24406;51.640;9.566;2022-09-25T11:23:40;8.35;;;2.10;;
36839;SDS011;24406;51.640;9.566;2022-09-25T11:28:45;3.15;;;1.83;;
36839;SDS011;24406;51.640;9.566;2022-09-25T11:33:52;6.10;;;2.60;;
36839;SDS011;24406;51.640;9.566;2022-09-25T11:38:59;7.35;;;2.15;;
36839;SDS011;24406;51.640;9.566;2022-09-25T11:44:22;10.50;;;2.92;;
36839;SDS011;24406;51.640;9.566;2022-09-25T11:49:27;10.95;;;2.70;;
36839;SDS011;24406;51.640;9.566;2022-09-25T11:54:37;7.15;;;5.80;;
36839;SDS011;24406;51.640;9.566;2022-09-25T11:59:50;3.83;;;1.88;;
36839;SDS011;24406;51.640;9.566;2022-09-25T12:05:23;4.70;;;2.10;;
36839;SDS011;24406;51.640;9.566;2022-09-25T12:10:43;5.65;;;2.10;;
36839;SDS011;24406;51.640;9.566;2022-09-25T12:15:52;5.13;;;2.00;;
36839;SDS011;24406;51.640;9.566;2022-09-25T12:21:01;4.50;;;1.90;;
36839;SDS011;24406;51.640;9.566;2022-09-25T12:26:12;7.65;;;2.20;;
36839;SDS011;24406;51.640;9.566;2022-09-25T12:31:23;7.60;;;2.45;;
36839;SDS011;24406;51.640;9.566;2022-09-25T12:36:32;4.07;;;2.08;;
36839;SDS011;24406;51.640;9.566;2022-09-25T12:41:39;4.95;;;4.50;;
36839;SDS011;24406;51.640;9.566;2022-09-25T12:46:48;7.10;;;2.35;;
36839;SDS011;24406;51.640;9.566;2022-09-25T12:51:54;3.83;;;2.50;;
36839;SDS011;24406;51.640;9.566;2022-09-25T12:57:00;3.58;;;2.20;;
36839;SDS011;24406;51.640;9.566;2022-09-25T13:02:05;5.20;;;2.58;;
36839;SDS011;24406;51.640;9.566;2022-09-25T13:12:23;4.90;;;2.25;;
36839;SDS011;24406;51.640;9.566;2022-09-25T13:17:32;5.20;;;2.22;;
36839;SDS011;24406;51.640;9.566;2022-09-25T13:22:33;5.53;;;2.13;;
36839;SDS011;24406;51.640;9.566;2022-09-25T13:27:42;4.10;;;1.70;;
36839;SDS011;24406;51.640;9.566;2022-09-25T13:32:46;3.92;;;2.45;;
36839;SDS011;24406;51.640;9.566;2022-09-25T13:37:49;3.55;;;1.80;;
36839;SDS011;24406;51.640;9.566;2022-09-25T13:42:53;1.85;;;1.65;;
36839;SDS011;24406;51.640;9.566;2022-09-25T13:48:32;2.92;;;1.75;;
36839;SDS011;24406;51.640;9.566;2022-09-25T13:53:47;2.70;;;1.80;;
36839;SDS011;24406;51.640;9.566;2022-09-25T14:04:31;1.95;;;1.50;;
36839;SDS011;24406;51.640;9.566;2022-09-25T14:09:35;2.83;;;1.67;;
36839;SDS011;24406;51.640;9.566;2022-09-25T14:14:44;2.45;;;1.67;;
36839;SDS011;24406;51.640;9.566;2022-09-25T14:19:53;3.60;;;2.03;;
36839;SDS011;24406;51.640;9.566;2022-09-25T14:24:55;2.42;;;2.00;;
36839;SDS011;24406;51.640;9.566;2022-09-25T14:30:05;4.07;;;2.40;;
36839;SDS011;24406;51.640;9.566;2022-09-25T14:35:21;3.70;;;2.17;;
36839;SDS011;24406;51.640;9.566;2022-09-25T14:40:31;3.78;;;2.13;;
36839;SDS011;24406;51.640;9.566;2022-09-25T14:45:38;4.38;;;2.10;;
36839;SDS011;24406;51.640;9.566;2022-09-25T14:50:58;4.10;;;2.10;;
36839;SDS011;24406;51.640;9.566;2022-09-25T14:56:02;3.70;;;1.50;;
36839;SDS011;24406;51.640;9.566;2022-09-25T15:01:10;4.85;;;1.48;;
36839;SDS011;24406;51.640;9.566;2022-09-25T15:06:23;1.80;;;1.50;;
36839;SDS011;24406;51.640;9.566;2022-09-25T15:11:26;4.53;;;1.50;;
36839;SDS011;24406;51.640;9.566;2022-09-25T15:16:28;3.63;;;1.60;;
36839;SDS011;24406;51.640;9.566;2022-09-25T15:22:07;2.97;;;1.88;;
36839;SDS011;24406;51.640;9.566;2022-09-25T15:27:10;4.85;;;2.10;;
36839;SDS011;24406;51.640;9.566;2022-09-25T15:32:17;3.20;;;2.00;;
36839;SDS011;24406;51.640;9.566;2022-09-25T15:37:24;3.58;;;2.53;;
36839;SDS011;24406;51.640;9.566;2022-09-25T15:42:28;5.40;;;2.13;;
36839;SDS011;24406;51.640;9.566;2022-09-25T15:52:52;6.72;;;5.80;;
36839;SDS011;24406;51.640;9.566;2022-09-25T15:57:54;7.78;;;6.50;;
36839;SDS011;24406;51.640;9.566;2022-09-25T16:03:09;4.78;;;2.40;;
36839;SDS011;24406;51.640;9.566;2022-09-25T16:08:34;2.70;;;1.88;;
36839;SDS011;24406;51.640;9.566;2022-09-25T16:13:36;3.70;;;1.65;;
36839;SDS011;24406;51.640;9.566;2022-09-25T16:18:40;2.45;;;1.63;;
36839;SDS011;24406;51.640;9.566;2022-09-25T16:23:42;3.13;;;2.17;;
36839;SDS011;24406;51.640;9.566;2022-09-25T16:28:46;5.80;;;2.10;;
36839;SDS011;24406;51.640;9.566;2022-09-25T16:33:50;4.28;;;2.63;;
36839;SDS011;24406;51.640;9.566;2022-09-25T16:39:11;6.78;;;2.72;;
36839;SDS011;24406;51.640;9.566;2022-09-25T16:44:17;4.10;;;2.83;;
36839;SDS011;24406;51.640;9.566;2022-09-25T16:49:20;4.03;;;2.38;;
36839;SDS011;24406;51.640;9.566;2022-09-25T16:54:23;4.93;;;2.40;;
36839;SDS011;24406;51.640;9.566;2022-09-25T16:59:29;2.63;;;1.50;;
36839;SDS011;24406;51.640;9.566;2022-09-25T17:04:31;4.55;;;1.40;;
36839;SDS011;24406;51.640;9.566;2022-09-25T17:09:36;2.60;;;1.92;;
36839;SDS011;24406;51.640;9.566;2022-09-25T17:14:37;3.85;;;1.70;;
36839;SDS011;24406;51.640;9.566;2022-09-25T17:19:39;5.22;;;3.10;;
36839;SDS011;24406;51.640;9.566;2022-09-25T17:24:41;11.85;;;10.65;;
36839;SDS011;24406;51.640;9.566;2022-09-25T17:29:43;9.57;;;7.95;;
36839;SDS011;24406;51.640;9.566;2022-09-25T17:34:46;8.38;;;4.85;;
36839;SDS011;24406;51.640;9.566;2022-09-25T17:39:49;48.85;;;16.65;;
36839;SDS011;24406;51.640;9.566;2022-09-25T17:44:50;6.45;;;4.03;;
36839;SDS011;24406;51.640;9.566;2022-09-25T17:49:51;6.50;;;2.58;;
36839;SDS011;24406;51.640;9.566;2022-09-25T17:54:54;56.42;;;21.63;;
36839;SDS011;24406;51.640;9.566;2022-09-25T17:59:55;36.75;;;16.73;;
36839;SDS011;24406;51.640;9.566;2022-09-25T18:04:59;39.88;;;19.90;;
36839;SDS011;24406;51.640;9.566;2022-09-25T18:10:01;41.50;;;24.15;;
36839;SDS011;24406;51.640;9.566;2022-09-25T18:15:04;15.23;;;9.90;;
36839;SDS011;24406;51.640;9.566;2022-09-25T18:20:06;6.32;;;3.30;;
36839;SDS011;24406;51.640;9.566;2022-09-25T18:25:27;6.38;;;2.85;;
36839;SDS011;24406;51.640;9.566;2022-09-25T18:30:29;5.43;;;2.03;;
36839;SDS011;24406;51.640;9.566;2022-09-25T18:35:30;3.28;;;1.83;;
36839;SDS011;24406;51.640;9.566;2022-09-25T18:40:33;5.63;;;2.05;;
36839;SDS011;24406;51.640;9.566;2022-09-25T18:45:34;7.18;;;1.98;;
36839;SDS011;24406;51.640;9.566;2022-09-25T18:50:37;2.95;;;2.00;;
36839;SDS011;24406;51.640;9.566;2022-09-25T18:55:41;4.85;;;2.10;;
36839;SDS011;24406;51.640;9.566;2022-09-25T19:00:43;3.47;;;2.03;;
36839;SDS011;24406;51.640;9.566;2022-09-25T19:05:54;6.28;;;1.98;;
36839;SDS011;24406;51.640;9.566;2022-09-25T19:10:58;2.30;;;1.83;;
36839;SDS011;24406;51.640;9.566;2022-09-25T19:16:00;3.20;;;2.20;;
36839;SDS011;24406;51.640;9.566;2022-09-25T19:21:02;10.57;;;3.75;;
36839;SDS011;24406;51.640;9.566;2022-09-25T19:26:06;4.03;;;2.55;;
36839;SDS011;24406;51.640;9.566;2022-09-25T19:31:10;6.70;;;2.60;;
36839;SDS011;24406;51.640;9.566;2022-09-25T19:36:14;5.93;;;2.63;;
36839;SDS011;24406;51.640;9.566;2022-09-25T19:41:20;3.97;;;2.00;;
36839;SDS011;24406;51.640;9.566;2022-09-25T19:46:24;3.80;;;2.15;;
36839;SDS011;24406;51.640;9.566;2022-09-25T19:51:26;4.60;;;2.40;;
36839;SDS011;24406;51.640;9.566;2022-09-25T19:56:30;5.72;;;2.08;;
36839;SDS011;24406;51.640;9.566;2022-09-25T20:01:32;3.42;;;1.92;;
36839;SDS011;24406;51.640;9.566;2022-09-25T20:06:34;4.45;;;2.55;;
36839;SDS011;24406;51.640;9.566;2022-09-25T20:11:37;2.63;;;1.73;;
36839;SDS011;24406;51.640;9.566;2022-09-25T20:16:38;2.15;;;1.95;;
36839;SDS011;24406;51.640;9.566;2022-09-25T20:21:40;4.97;;;2.42;;
36839;SDS011;24406;51.640;9.566;2022-09-25T20:26:43;4.03;;;2.30;;
36839;SDS011;24406;51.640;9.566;2022-09-25T20:31:44;4.15;;;2.00;;
36839;SDS011;24406;51.640;9.566;2022-09-25T20:36:46;5.45;;;2.05;;
36839;SDS011;24406;51.640;9.566;2022-09-25T20:41:49;5.63;;;2.30;;
36839;SDS011;24406;51.640;9.566;2022-09-25T20:46:50;3.60;;;2.75;;
36839;SDS011;24406;51.640;9.566;2022-09-25T20:51:52;4.65;;;2.60;;
36839;SDS011;24406;51.640;9.566;2022-09-25T20:56:55;4.15;;;3.13;;
36839;SDS011;24406;51.640;9.566;2022-09-25T21:01:56;6.00;;;2.55;;
36839;SDS011;24406;51.640;9.566;2022-09-25T21:06:58;5.75;;;3.42;;
36839;SDS011;24406;51.640;9.566;2022-09-25T21:12:02;3.15;;;2.88;;
36839;SDS011;24406;51.640;9.566;2022-09-25T21:17:04;7.88;;;3.00;;
36839;SDS011;24406;51.640;9.566;2022-09-25T21:22:06;4.05;;;2.90;;
36839;SDS011;24406;51.640;9.566;2022-09-25T21:27:09;7.60;;;3.28;;
36839;SDS011;24406;51.640;9.566;2022-09-25T21:32:10;5.35;;;3.28;;
36839;SDS011;24406;51.640;9.566;2022-09-25T21:37:12;6.45;;;3.30;;
36839;SDS011;24406;51.640;9.566;2022-09-25T21:42:15;6.25;;;3.20;;
36839;SDS011;24406;51.640;9.566;2022-09-25T21:47:17;3.80;;;3.40;;
36839;SDS011;24406;51.640;9.566;2022-09-25T21:52:18;4.90;;;3.75;;
36839;SDS011;24406;51.640;9.566;2022-09-25T21:57:21;4.43;;;3.38;;
36839;SDS011;24406;51.640;9.566;2022-09-25T22:02:23;3.53;;;2.67;;
36839;SDS011;24406;51.640;9.566;2022-09-25T22:07:24;4.93;;;3.38;;
36839;SDS011;24406;51.640;9.566;2022-09-25T22:12:27;5.65;;;4.15;;
36839;SDS011;24406;51.640;9.566;2022-09-25T22:17:28;6.72;;;5.43;;
36839;SDS011;24406;51.640;9.566;2022-09-25T22:22:30;8.40;;;4.72;;
36839;SDS011;24406;51.640;9.566;2022-09-25T22:27:33;8.68;;;4.80;;
36839;SDS011;24406;51.640;9.566;2022-09-25T22:32:34;5.85;;;4.45;;
36839;SDS011;24406;51.640;9.566;2022-09-25T22:37:35;13.48;;;9.15;;
36839;SDS011;24406;51.640;9.566;2022-09-25T22:42:38;7.75;;;5.75;;
36839;SDS011;24406;51.640;9.566;2022-09-25T22:47:39;3.95;;;3.55;;
36839;SDS011;24406;51.640;9.566;2022-09-25T22:52:41;5.22;;;3.65;;
36839;SDS011;24406;51.640;9.566;2022-09-25T22:57:43;8.73;;;4.38;;
36839;SDS011;24406;51.640;9.566;2022-09-25T23:02:45;8.43;;;4.85;;
36839;SDS011;24406;51.640;9.566;2022-09-25T23:07:46;6.05;;;4.40;;
36839;SDS011;24406;51.640;9.566;2022-09-25T23:12:49;11.27;;;4.55;;
36839;SDS011;24406;51.640;9.566;2022-09-25T23:17:50;6.28;;;4.45;;
36839;SDS011;24406;51.640;9.566;2022-09-25T23:22:52;5.40;;;4.25;;
36839;SDS011;24406;51.640;9.566;2022-09-25T23:27:54;7.15;;;4.72;;
36839;SDS011;24406;51.640;9.566;2022-09-25T23:32:56;6.45;;;4.07;;
36839;SDS011;24406;51.640;9.566;2022-09-25T23:37:57;4.93;;;3.88;;
36839;SDS011;24406;51.640;9.566;2022-09-25T23:43:00;5.45;;;3.40;;
36839;SDS011;24406;51.640;9.566;2022-09-25T23:48:01;7.90;;;4.70;;
36839;SDS011;24406;51.640;9.566;2022-09-25T23:53:03;8.23;;;4.32;;
36839;SDS011;24406;51.640;9.566;2022-09-25T23:58:06;5.28;;;4.07;;
